Time;durP1;ratioP1;P1;durP2;ratioP2;P2;SDS_P1;SDS_P2;PMS_P1;PMS_P2;Temp;Humidity;BMP_temperature;BMP_pressure;BME280_temperature;BME280_humidity;BME280_pressure;Samples;Min_cycle;Max_cycle;Signal;HPM_P1;HPM_P2
2023/09/18 00:00:08;;;;;;;8.57;8.03;;;;;;;19.47;87.18;100404.44;4898472;29;20712;-66
2023/09/18 00:02:34;;;;;;;8.70;7.97;;;;;;;19.48;87.07;100399.81;4899310;29;20527;-66
2023/09/18 00:05:01;;;;;;;9.17;8.30;;;;;;;19.45;87.52;100392.94;4898522;29;20240;-66
2023/09/18 00:07:28;;;;;;;7.97;7.27;;;;;;;19.43;87.47;100380.69;4898605;29;20553;-66
2023/09/18 00:09:54;;;;;;;8.43;7.80;;;;;;;19.42;87.60;100377.09;4898604;29;20684;-66
2023/09/18 00:12:20;;;;;;;7.23;7.07;;;;;;;19.45;87.18;100379.41;4898440;29;20236;-66
2023/09/18 00:14:50;;;;;;;11.43;8.67;;;;;;;19.46;87.18;100381.06;4898581;29;20602;-66
2023/09/18 00:17:17;;;;;;;8.23;7.43;;;;;;;19.41;87.05;100382.72;4898523;29;20252;-66
2023/09/18 00:19:43;;;;;;;8.03;7.70;;;;;;;19.38;86.97;100375.88;4898504;29;20193;-66
2023/09/18 00:22:10;;;;;;;8.47;7.97;;;;;;;19.39;87.15;100382.94;4898253;29;20201;-66
2023/09/18 00:24:37;;;;;;;8.13;7.70;;;;;;;19.40;87.00;100368.34;4898783;29;20268;-66
2023/09/18 00:27:03;;;;;;;8.33;7.50;;;;;;;19.42;87.10;100366.25;4898198;29;20192;-66
2023/09/18 00:29:30;;;;;;;8.10;7.70;;;;;;;19.39;87.22;100360.44;4896813;29;20264;-67
2023/09/18 00:31:57;;;;;;;7.60;7.20;;;;;;;19.37;87.14;100376.06;4896924;29;20193;-66
2023/09/18 00:34:23;;;;;;;7.33;7.03;;;;;;;19.34;87.54;100365.69;4896931;29;20397;-66
2023/09/18 00:36:50;;;;;;;7.17;6.97;;;;;;;19.37;87.36;100348.97;4898368;29;20200;-66
2023/09/18 00:39:16;;;;;;;8.27;7.53;;;;;;;19.37;87.00;100347.09;4898353;29;20189;-66
2023/09/18 00:41:43;;;;;;;7.87;7.40;;;;;;;19.38;87.15;100331.66;4897947;29;20267;-66
2023/09/18 00:44:10;;;;;;;7.60;7.13;;;;;;;19.41;86.78;100336.63;4898360;29;20244;-66
2023/09/18 00:46:36;;;;;;;7.73;7.33;;;;;;;19.41;86.86;100326.63;4898291;29;20216;-66
2023/09/18 00:49:03;;;;;;;8.40;7.77;;;;;;;19.44;87.07;100319.97;4899920;29;20223;-66
2023/09/18 00:51:30;;;;;;;8.00;7.20;;;;;;;19.46;86.73;100315.16;4900668;29;20588;-66
2023/09/18 00:53:57;;;;;;;7.47;6.80;;;;;;;19.44;87.16;100317.25;4902164;29;20188;-66
2023/09/18 00:56:24;;;;;;;7.60;6.97;;;;;;;19.41;87.13;100314.94;4901838;29;20196;-66
2023/09/18 00:58:51;;;;;;;8.13;7.73;;;;;;;19.37;86.94;100309.13;4902323;29;20185;-66
2023/09/18 01:01:22;;;;;;;9.40;7.70;;;;;;;19.39;86.80;100306.22;4902064;29;20208;-66
2023/09/18 01:03:53;;;;;;;8.37;6.97;;;;;;;19.38;86.83;100302.69;4900471;29;20284;-65
2023/09/18 01:06:20;;;;;;;8.63;7.67;;;;;;;19.39;86.37;100298.09;4900453;29;20225;-65
2023/09/18 01:08:50;;;;;;;7.43;7.03;;;;;;;19.38;86.80;100297.25;4900300;29;20212;-65
2023/09/18 01:11:40;;;;;;;8.07;7.30;;;;;;;19.36;86.46;100293.09;4900289;29;20216;-66
2023/09/18 01:14:14;;;;;;;7.77;7.37;;;;;;;19.37;86.55;100290.16;4901553;29;20180;-66
2023/09/18 01:17:04;;;;;;;7.40;7.20;;;;;;;19.35;86.30;100283.31;4901975;29;20185;-66
2023/09/18 01:19:45;;;;;;;9.93;7.07;;;;;;;19.32;86.76;100279.13;4901377;29;20634;-66
2023/09/18 01:22:17;;;;;;;7.93;7.43;;;;;;;19.34;86.27;100276.22;4901648;29;20720;-65
2023/09/18 01:24:48;;;;;;;8.10;7.43;;;;;;;19.34;86.49;100279.75;4900161;29;20197;-65
2023/09/18 01:27:18;;;;;;;7.83;7.23;;;;;;;19.30;86.14;100266.88;4901593;29;20181;-66
2023/09/18 01:29:46;;;;;;;7.57;6.87;;;;;;;19.29;86.18;100276.88;4901592;29;20212;-66
2023/09/18 01:32:13;;;;;;;9.33;8.50;;;;;;;19.27;86.26;100268.13;4901475;29;20193;-66
2023/09/18 01:34:44;;;;;;;8.23;7.40;;;;;;;19.23;86.27;100271.47;4901186;29;20560;-66
2023/09/18 01:37:13;;;;;;;8.00;7.17;;;;;;;19.25;86.36;100267.53;4899890;29;20197;-66
2023/09/18 01:39:40;;;;;;;6.93;6.30;;;;;;;19.26;86.30;100276.50;4901595;29;20180;-67
2023/09/18 01:42:09;;;;;;;6.87;6.67;;;;;;;19.26;86.19;100276.50;4901204;29;20599;-66
2023/09/18 01:44:39;;;;;;;6.70;6.50;;;;;;;19.26;86.54;100266.47;4901254;29;20661;-66
2023/09/18 01:47:08;;;;;;;7.40;6.90;;;;;;;19.23;86.10;100266.06;4900939;29;20237;-66
2023/09/18 01:49:37;;;;;;;6.30;6.03;;;;;;;19.18;86.40;100261.28;4899753;29;20220;-66
2023/09/18 01:52:05;;;;;;;6.87;6.37;;;;;;;19.13;86.32;100259.28;4901354;29;20196;-66
2023/09/18 01:54:33;;;;;;;7.57;7.23;;;;;;;19.09;86.56;100258.06;4900813;29;20229;-66
2023/09/18 01:57:00;;;;;;;6.83;6.53;;;;;;;19.04;86.73;100248.91;4899583;29;20204;-66
2023/09/18 01:59:27;;;;;;;7.27;6.63;;;;;;;19.06;86.28;100230.53;4898798;29;20204;-67
2023/09/18 02:01:54;;;;;;;8.30;7.87;;;;;;;18.99;86.78;100233.31;4898958;29;20204;-66
2023/09/18 02:04:23;;;;;;;7.47;7.07;;;;;;;18.97;87.45;100221.84;4900650;29;20203;-66
2023/09/18 02:07:09;;;;;;;8.17;7.87;;;;;;;18.96;87.34;100217.50;4901142;29;20258;-66
2023/09/18 02:09:36;;;;;;;6.97;6.63;;;;;;;18.98;87.33;100209.13;4900414;29;20288;-67
2023/09/18 02:12:04;;;;;;;6.90;6.67;;;;;;;19.00;87.20;100221.44;4901088;29;20239;-66
2023/09/18 02:14:31;;;;;;;7.97;7.63;;;;;;;19.02;87.52;100218.47;4899231;29;20296;-66
2023/09/18 02:16:58;;;;;;;6.90;6.37;;;;;;;19.03;87.57;100225.56;4900925;29;20197;-67
2023/09/18 02:19:24;;;;;;;6.87;6.47;;;;;;;19.00;86.90;100218.72;4899142;29;20197;-67
2023/09/18 02:21:51;;;;;;;8.20;6.57;;;;;;;19.01;87.40;100214.13;4899043;29;20217;-68
2023/09/18 02:24:17;;;;;;;6.47;6.07;;;;;;;19.01;87.15;100208.72;4900343;29;20193;-68
2023/09/18 02:26:45;;;;;;;6.80;6.30;;;;;;;19.01;87.30;100211.41;4900573;29;20241;-67
2023/09/18 02:29:13;;;;;;;8.37;7.67;;;;;;;19.02;87.03;100196.81;4900420;29;20209;-67
2023/09/18 02:31:40;;;;;;;11.03;6.97;;;;;;;18.98;87.24;100193.69;4900104;29;20212;-67
2023/09/18 02:34:07;;;;;;;8.40;7.00;;;;;;;18.93;87.83;100184.56;4900117;29;20223;-67
2023/09/18 02:36:33;;;;;;;7.37;6.97;;;;;;;18.93;87.39;100184.56;4900132;29;20193;-67
2023/09/18 02:39:00;;;;;;;8.47;7.67;;;;;;;18.89;87.65;100181.47;4900291;29;20224;-67
2023/09/18 02:41:26;;;;;;;7.60;7.00;;;;;;;18.92;87.65;100169.38;4898721;29;20685;-67
2023/09/18 02:43:53;;;;;;;7.20;6.80;;;;;;;18.95;87.88;100164.34;4898661;29;20219;-67
2023/09/18 02:46:20;;;;;;;7.67;6.80;;;;;;;18.98;87.79;100158.47;4898673;29;20204;-67
2023/09/18 02:48:46;;;;;;;6.00;5.67;;;;;;;19.02;87.92;100148.88;4899777;29;20292;-67
2023/09/18 02:51:13;;;;;;;9.87;7.47;;;;;;;19.05;87.48;100144.91;4899780;29;20283;-67
2023/09/18 02:53:39;;;;;;;8.37;7.97;;;;;;;19.04;87.51;100135.94;4899284;29;20261;-67
2023/09/18 02:56:06;;;;;;;8.17;7.43;;;;;;;19.04;87.77;100135.09;4898462;29;20201;-67
2023/09/18 02:58:33;;;;;;;7.07;6.63;;;;;;;19.03;87.41;100133.44;4898427;29;20636;-67
2023/09/18 03:00:59;;;;;;;6.50;6.30;;;;;;;19.02;87.31;100121.78;4898310;29;20831;-67
2023/09/18 03:03:27;;;;;;;5.57;5.40;;;;;;;19.02;87.46;100115.53;4898376;29;20212;-67
2023/09/18 03:06:00;;;;;;;6.10;6.00;;;;;;;19.03;87.08;100112.59;4900039;29;20239;-67
2023/09/18 03:08:27;;;;;;;12.53;6.43;;;;;;;19.03;87.17;100136.16;4898242;29;20232;-67
2023/09/18 03:10:54;;;;;;;6.90;6.53;;;;;;;18.99;87.26;100134.94;4897867;29;20220;-67
2023/09/18 03:13:22;;;;;;;6.77;6.37;;;;;;;18.97;87.41;100126.19;4898153;29;20671;-67
2023/09/18 03:15:49;;;;;;;7.03;6.83;;;;;;;18.95;87.17;100120.19;4898103;29;20201;-67
2023/09/18 03:18:16;;;;;;;8.00;7.33;;;;;;;18.95;87.56;100115.59;4898089;29;20197;-67
2023/09/18 03:20:42;;;;;;;7.87;7.23;;;;;;;18.95;87.28;100115.59;4899483;29;20284;-67
2023/09/18 03:23:09;;;;;;;7.73;7.07;;;;;;;18.95;86.73;100112.88;4899785;29;20192;-67
2023/09/18 03:25:37;;;;;;;6.93;6.53;;;;;;;18.92;87.06;100107.91;4898231;29;20248;-67
2023/09/18 03:28:19;;;;;;;6.43;5.83;;;;;;;18.93;86.64;100095.16;4897932;29;20193;-67
2023/09/18 03:30:46;;;;;;;6.70;6.47;;;;;;;18.92;87.34;100096.25;4898077;29;20223;-67
2023/09/18 03:33:12;;;;;;;7.27;6.97;;;;;;;18.91;87.24;100084.56;4898158;29;20737;-67
2023/09/18 03:35:48;;;;;;;7.57;6.90;;;;;;;18.93;87.92;100078.91;4897929;29;20303;-67
2023/09/18 03:38:17;;;;;;;12.60;6.33;;;;;;;18.86;87.75;100076.28;4897759;29;20549;-67
2023/09/18 03:40:44;;;;;;;6.70;6.20;;;;;;;18.85;87.34;100076.50;4897998;29;20295;-67
2023/09/18 03:43:12;;;;;;;7.37;6.60;;;;;;;18.81;88.26;100067.97;4898731;29;20293;-67
2023/09/18 03:45:40;;;;;;;13.43;7.37;;;;;;;18.78;88.48;100063.00;4897603;29;20630;-67
2023/09/18 03:48:09;;;;;;;8.13;7.33;;;;;;;18.84;88.18;100061.31;4898242;29;20196;-67
2023/09/18 03:50:36;;;;;;;9.03;7.17;;;;;;;18.91;88.08;100064.78;4898764;29;20641;-67
2023/09/18 03:53:03;;;;;;;7.37;6.93;;;;;;;18.89;88.15;100056.88;4898685;29;20613;-67
2023/09/18 03:55:29;;;;;;;7.20;6.60;;;;;;;18.89;87.94;100058.75;4898682;29;20184;-67
2023/09/18 03:57:57;;;;;;;13.40;8.63;;;;;;;18.89;88.29;100047.91;4897414;29;20212;-67
2023/09/18 04:00:23;;;;;;;12.73;7.10;;;;;;;18.92;87.94;100042.06;4897372;29;20220;-67
2023/09/18 04:02:50;;;;;;;7.13;6.57;;;;;;;18.87;87.64;100037.31;4897297;29;20216;-67
2023/09/18 04:05:16;;;;;;;7.73;7.00;;;;;;;18.88;88.29;100041.69;4899088;29;20185;-67
2023/09/18 04:07:46;;;;;;;9.10;7.10;;;;;;;18.99;88.03;100038.25;4898484;29;20197;-67
2023/09/18 04:10:22;;;;;;;8.93;6.23;;;;;;;19.06;87.76;100021.91;4898356;29;20288;-67
2023/09/18 04:12:50;;;;;;;9.17;7.27;;;;;;;19.16;86.70;100036.63;4897208;29;20653;-67
2023/09/18 04:15:18;;;;;;;8.17;5.67;;;;;;;19.24;86.56;100021.09;4898665;29;20542;-67
2023/09/18 04:17:46;;;;;;;6.87;6.20;;;;;;;19.32;86.29;100010.78;4897097;29;20200;-67
2023/09/18 04:20:13;;;;;;;7.07;6.37;;;;;;;19.36;85.48;100012.00;4896992;29;20216;-67
2023/09/18 04:22:49;;;;;;;5.43;5.33;;;;;;;19.39;85.61;100003.41;4896802;29;20204;-67
2023/09/18 04:25:18;;;;;;;6.07;5.50;;;;;;;19.41;85.26;100005.91;4896984;29;20668;-67
2023/09/18 04:27:45;;;;;;;5.37;5.13;;;;;;;19.50;84.30;100012.72;4896917;29;20227;-67
2023/09/18 04:30:13;;;;;;;10.50;5.17;;;;;;;19.64;84.03;100007.94;4897989;29;20216;-67
2023/09/18 04:32:40;;;;;;;7.67;5.47;;;;;;;19.69;83.74;100027.09;4896853;29;20673;-67
2023/09/18 04:35:08;;;;;;;7.00;5.83;;;;;;;19.75;82.77;100037.84;4896975;29;20201;-67
2023/09/18 04:37:37;;;;;;;14.93;5.27;;;;;;;19.80;82.36;100045.28;4896935;29;20224;-67
2023/09/18 04:40:09;;;;;;;10.93;5.83;;;;;;;19.88;82.51;100043.09;4896794;29;20239;-67
2023/09/18 04:42:39;;;;;;;7.70;6.07;;;;;;;19.97;81.88;100046.31;4897074;29;20232;-67
2023/09/18 04:45:06;;;;;;;10.33;5.07;;;;;;;20.04;80.45;100050.59;4896769;29;20203;-67
2023/09/18 04:47:33;;;;;;;6.60;5.43;;;;;;;20.13;80.54;100048.41;4896804;29;20200;-67
2023/09/18 04:49:59;;;;;;;11.60;5.07;;;;;;;20.19;80.26;100041.22;4896621;29;20705;-67
2023/09/18 04:52:26;;;;;;;11.87;4.80;;;;;;;20.25;80.02;100032.97;4896715;29;20554;-67
2023/09/18 04:54:54;;;;;;;5.07;4.77;;;;;;;20.33;79.85;100029.13;4896711;29;20223;-67
2023/09/18 04:57:22;;;;;;;9.67;4.80;;;;;;;20.37;78.57;100019.44;4896695;29;20668;-66
2023/09/18 04:59:49;;;;;;;9.93;4.33;;;;;;;20.46;78.28;100037.06;4896672;29;20227;-67
2023/09/18 05:02:31;;;;;;;4.97;4.63;;;;;;;20.47;78.38;100046.88;4896682;29;20240;-66
2023/09/18 05:04:57;;;;;;;5.27;4.23;;;;;;;20.54;78.25;100061.16;4896773;29;20211;-69
2023/09/18 05:07:24;;;;;;;4.57;4.13;;;;;;;20.54;77.87;100054.94;4896633;29;20200;-67
2023/09/18 05:09:50;;;;;;;11.83;4.87;;;;;;;20.52;78.19;100066.84;4898245;29;20220;-67
2023/09/18 05:12:17;;;;;;;8.53;4.60;;;;;;;20.53;78.16;100078.56;4897791;29;20192;-67
2023/09/18 05:14:43;;;;;;;7.83;3.80;;;;;;;20.56;77.72;100086.22;4897798;29;20201;-70
2023/09/18 05:17:13;;;;;;;4.77;3.80;;;;;;;20.61;77.39;100080.94;4896563;29;20200;-71
2023/09/18 05:19:43;;;;;;;14.87;4.67;;;;;;;20.61;77.64;100075.50;4898008;29;20181;-71
2023/09/18 05:22:12;;;;;;;9.27;4.40;;;;;;;20.66;76.78;100072.91;4898017;29;20729;-71
2023/09/18 05:24:39;;;;;;;23.63;4.03;;;;;;;20.66;77.31;100080.22;4897936;29;20598;-71
2023/09/18 05:27:07;;;;;;;10.13;4.03;;;;;;;20.65;77.07;100065.81;4897915;29;20207;-71
2023/09/18 05:29:35;;;;;;;16.57;4.43;;;;;;;20.64;77.92;100068.75;4897488;29;20213;-70
2023/09/18 05:32:03;;;;;;;7.60;4.77;;;;;;;20.64;77.70;100066.88;4898041;29;20710;-70
2023/09/18 05:34:31;;;;;;;4.20;3.53;;;;;;;20.63;77.43;100057.06;4899182;29;20185;-70
2023/09/18 05:36:58;;;;;;;9.27;4.90;;;;;;;20.63;77.97;100048.09;4901456;29;20173;-70
2023/09/18 05:39:24;;;;;;;10.03;4.60;;;;;;;20.62;77.71;100055.44;4901103;29;20185;-70
2023/09/18 05:41:51;;;;;;;9.23;3.97;;;;;;;20.66;77.85;100058.50;4900850;29;20272;-71
2023/09/18 05:44:17;;;;;;;3.70;3.40;;;;;;;20.70;77.63;100060.53;4901537;29;20193;-71
2023/09/18 05:46:44;;;;;;;5.60;3.70;;;;;;;20.68;77.96;100056.38;4900995;29;20280;-71
2023/09/18 05:49:10;;;;;;;6.83;4.13;;;;;;;20.65;77.82;100065.81;4900759;29;20603;-71
2023/09/18 05:51:37;;;;;;;6.13;4.00;;;;;;;20.65;78.07;100067.72;4900782;29;20625;-71
2023/09/18 05:54:03;;;;;;;20.43;4.07;;;;;;;20.61;78.45;100072.78;4901097;29;20192;-71
2023/09/18 05:56:30;;;;;;;8.83;4.37;;;;;;;20.62;78.00;100060.88;4900853;29;20605;-71
2023/09/18 05:58:56;;;;;;;7.13;3.40;;;;;;;20.62;78.39;100054.59;4900697;29;20205;-71
2023/09/18 06:01:22;;;;;;;8.80;4.10;;;;;;;20.61;78.28;100070.06;4900693;29;20275;-70
2023/09/18 06:03:49;;;;;;;8.83;4.70;;;;;;;20.64;77.92;100063.31;4901233;29;20185;-71
2023/09/18 06:06:15;;;;;;;10.40;4.17;;;;;;;20.57;78.33;100062.63;4900638;29;20680;-71
2023/09/18 06:08:42;;;;;;;4.57;4.13;;;;;;;20.60;78.15;100068.41;4900624;29;20193;-71
2023/09/18 06:11:08;;;;;;;4.63;4.10;;;;;;;20.61;78.28;100074.66;4900352;29;20240;-70
2023/09/18 06:13:36;;;;;;;11.10;4.30;;;;;;;20.59;78.29;100080.31;4900458;29;20204;-71
2023/09/18 06:16:07;;;;;;;8.13;4.73;;;;;;;20.58;78.54;100081.38;4900646;29;20236;-71
2023/09/18 06:18:35;;;;;;;11.63;4.73;;;;;;;20.59;78.32;100085.75;4900651;29;20199;-70
2023/09/18 06:21:02;;;;;;;8.20;4.20;;;;;;;20.63;78.24;100084.22;4900300;29;20295;-70
2023/09/18 06:23:28;;;;;;;11.53;4.70;;;;;;;20.59;78.26;100087.63;4900357;29;20615;-70
2023/09/18 06:25:56;;;;;;;5.43;4.23;;;;;;;20.58;78.40;100099.59;4900738;29;20281;-71
2023/09/18 06:28:22;;;;;;;6.67;3.83;;;;;;;20.57;78.61;100114.22;4900259;29;20200;-71
2023/09/18 06:30:49;;;;;;;8.30;4.23;;;;;;;20.60;78.16;100113.75;4900298;29;20221;-70
2023/09/18 06:33:16;;;;;;;9.37;4.60;;;;;;;20.60;78.51;100097.44;4900141;29;20681;-70
2023/09/18 06:35:43;;;;;;;7.73;3.57;;;;;;;20.58;78.07;100094.94;4900054;29;20203;-71
2023/09/18 06:38:11;;;;;;;11.43;4.23;;;;;;;20.59;78.07;100106.66;4900367;29;20181;-71
2023/09/18 06:40:38;;;;;;;11.40;4.40;;;;;;;20.64;77.62;100101.34;4899985;29;20300;-70
2023/09/18 06:43:05;;;;;;;24.03;4.77;;;;;;;20.70;77.46;100114.03;4899789;29;20199;-70
2023/09/18 06:45:33;;;;;;;12.23;4.53;;;;;;;20.72;77.35;100107.28;4898426;29;20235;-70
2023/09/18 06:48:00;;;;;;;9.83;4.03;;;;;;;20.62;77.16;100096.19;4899813;29;20703;-71
2023/09/18 06:50:26;;;;;;;9.47;3.83;;;;;;;20.73;77.07;100097.25;4899884;29;20225;-70
2023/09/18 06:52:53;;;;;;;3.80;3.43;;;;;;;20.64;77.38;100104.06;4900079;29;20227;-70
2023/09/18 06:55:19;;;;;;;7.77;4.90;;;;;;;20.62;77.33;100103.50;4899669;29;20220;-71
2023/09/18 06:57:47;;;;;;;8.13;3.43;;;;;;;20.63;77.04;100114.09;4899712;29;20196;-70
2023/09/18 07:00:18;;;;;;;11.67;4.07;;;;;;;20.64;77.22;100126.63;4899574;29;20582;-70
2023/09/18 07:02:44;;;;;;;7.13;3.67;;;;;;;20.68;77.23;100119.69;4900212;29;20184;-71
2023/09/18 07:05:11;;;;;;;16.47;3.80;;;;;;;20.65;77.54;100131.00;4899553;29;20184;-71
2023/09/18 07:07:38;;;;;;;8.30;4.37;;;;;;;20.64;77.41;100131.22;4899541;29;20188;-71
2023/09/18 07:10:05;;;;;;;5.63;3.40;;;;;;;20.66;77.34;100137.28;4899374;29;20216;-70
2023/09/18 07:12:32;;;;;;;5.77;3.53;;;;;;;20.75;77.06;100133.16;4899379;29;20279;-70
2023/09/18 07:15:03;;;;;;;4.27;3.77;;;;;;;20.70;77.35;100133.88;4899680;29;20189;-71
2023/09/18 07:17:30;;;;;;;6.80;3.70;;;;;;;20.68;77.37;100141.41;4899534;29;20192;-71
2023/09/18 07:19:57;;;;;;;4.23;3.27;;;;;;;20.67;77.33;100145.19;4899436;29;20701;-70
2023/09/18 07:22:23;;;;;;;7.13;3.67;;;;;;;20.68;77.20;100143.28;4899809;29;20180;-70
2023/09/18 07:24:50;;;;;;;4.20;3.30;;;;;;;20.74;76.67;100142.38;4899439;29;20181;-70
2023/09/18 07:27:16;;;;;;;10.63;3.40;;;;;;;20.80;76.84;100139.53;4899624;29;20201;-70
2023/09/18 07:29:43;;;;;;;5.40;2.93;;;;;;;20.83;76.45;100144.53;4899424;29;20213;-70
2023/09/18 07:32:10;;;;;;;6.00;3.03;;;;;;;20.86;76.57;100133.19;4899029;29;20200;-70
2023/09/18 07:34:37;;;;;;;9.03;3.00;;;;;;;20.94;76.56;100141.00;4899506;29;20653;-71
2023/09/18 07:37:03;;;;;;;11.10;2.80;;;;;;;20.91;76.28;100141.47;4899023;29;20196;-71
2023/09/18 07:39:30;;;;;;;5.07;3.30;;;;;;;20.95;75.27;100147.28;4898779;29;20200;-70
2023/09/18 07:41:57;;;;;;;6.57;4.17;;;;;;;20.96;75.87;100149.75;4898776;29;20199;-70
2023/09/18 07:44:23;;;;;;;10.37;3.30;;;;;;;20.94;75.98;100154.59;4899414;29;20189;-70
2023/09/18 07:46:50;;;;;;;11.33;2.87;;;;;;;20.99;76.00;100159.34;4899049;29;20192;-70
2023/09/18 07:49:16;;;;;;;6.37;2.33;;;;;;;21.00;75.73;100163.72;4898763;29;20680;-70
2023/09/18 07:51:44;;;;;;;3.63;2.60;;;;;;;20.98;75.63;100163.94;4898888;29;20636;-71
2023/09/18 07:54:15;;;;;;;4.30;2.70;;;;;;;21.11;75.11;100162.06;4898903;29;20200;-71
2023/09/18 07:56:43;;;;;;;5.10;3.33;;;;;;;21.03;75.65;100151.53;4899189;29;20205;-70
2023/09/18 07:59:10;;;;;;;14.37;3.37;;;;;;;21.00;75.70;100171.03;4898333;29;20632;-70
2023/09/18 08:01:37;;;;;;;8.67;3.00;;;;;;;21.00;75.31;100163.72;4898730;29;20254;-70
2023/09/18 08:04:03;;;;;;;6.00;2.60;;;;;;;21.11;74.83;100167.50;4899297;29;20197;-71
2023/09/18 08:06:30;;;;;;;4.35;2.78;;;;;;;21.08;75.49;100168.81;4899054;29;20196;-71
2023/09/18 08:08:56;;;;;;;9.83;3.20;;;;;;;21.10;75.37;100182.16;4899065;29;20200;-71
2023/09/18 08:11:23;;;;;;;2.90;2.80;;;;;;;21.17;74.87;100175.59;4898308;29;20240;-71
2023/09/18 08:13:49;;;;;;;2.60;2.43;;;;;;;21.02;75.20;100193.34;4898443;29;20297;-70
2023/09/18 08:16:17;;;;;;;6.73;2.60;;;;;;;21.04;74.68;100194.81;4898343;29;20736;-72
2023/09/18 08:18:43;;;;;;;2.93;2.47;;;;;;;21.00;74.42;100171.03;4898523;29;20200;-70
2023/09/18 08:21:10;;;;;;;3.27;2.97;;;;;;;20.97;74.03;100164.16;4898226;29;20239;-70
2023/09/18 08:23:38;;;;;;;7.37;2.40;;;;;;;21.05;74.01;100176.59;4898507;29;20673;-70
2023/09/18 08:26:05;;;;;;;2.53;2.30;;;;;;;21.12;73.63;100180.91;4898750;29;20212;-70
2023/09/18 08:28:31;;;;;;;2.53;2.30;;;;;;;21.12;73.29;100188.19;4898550;29;20661;-71
2023/09/18 08:30:59;;;;;;;1.80;1.80;;;;;;;20.98;73.95;100199.28;4898009;29;20220;-70
2023/09/18 08:33:26;;;;;;;2.67;2.00;;;;;;;21.00;73.89;100206.38;4898124;29;20197;-71
2023/09/18 08:35:52;;;;;;;4.57;2.57;;;;;;;20.97;73.93;100203.03;4898125;29;20181;-70
2023/09/18 08:38:19;;;;;;;12.60;2.57;;;;;;;20.96;74.21;100200.56;4898148;29;20252;-71
2023/09/18 08:40:45;;;;;;;5.83;2.37;;;;;;;20.96;74.48;100204.09;4898445;29;20211;-70
2023/09/18 08:43:14;;;;;;;6.13;2.30;;;;;;;20.97;74.27;100188.63;4898005;29;20200;-70
2023/09/18 08:45:48;;;;;;;8.70;2.40;;;;;;;20.94;74.42;100191.81;4898004;29;20189;-70
2023/09/18 08:48:15;;;;;;;6.83;1.97;;;;;;;21.08;73.09;100192.44;4898304;29;20191;-70
2023/09/18 08:50:43;;;;;;;2.07;1.97;;;;;;;21.08;72.71;100196.00;4897993;29;20586;-70
2023/09/18 08:53:09;;;;;;;4.23;2.07;;;;;;;21.09;72.82;100181.31;4898170;29;20196;-71
2023/09/18 08:55:36;;;;;;;4.33;2.30;;;;;;;21.11;72.68;100191.97;4898423;29;20192;-71
2023/09/18 08:58:03;;;;;;;2.20;2.10;;;;;;;21.14;72.84;100202.41;4898173;29;20252;-71
2023/09/18 09:00:29;;;;;;;1.73;1.73;;;;;;;21.08;72.13;100200.59;4897881;29;20212;-70
2023/09/18 09:02:56;;;;;;;2.37;2.03;;;;;;;21.06;71.80;100205.41;4897913;29;20244;-71
2023/09/18 09:05:23;;;;;;;1.97;1.87;;;;;;;21.04;72.26;100205.69;4897904;29;20272;-70
2023/09/18 09:07:50;;;;;;;4.50;1.70;;;;;;;21.04;72.13;100221.16;4897841;29;20192;-71
2023/09/18 09:10:17;;;;;;;9.20;8.43;;;;;;;21.06;72.66;100222.56;4899855;29;20223;-71
2023/09/18 09:12:55;;;;;;;6.90;2.57;;;;;;;21.06;71.44;100216.28;4902172;29;20177;-66
2023/09/18 09:15:25;;;;;;;3.60;2.20;;;;;;;21.01;71.55;100216.16;4901504;29;20200;-65
2023/09/18 09:18:02;;;;;;;1.83;1.73;;;;;;;21.10;70.78;100212.06;4901555;29;20245;-66
2023/09/18 09:20:29;;;;;;;4.73;2.27;;;;;;;21.12;70.60;100205.38;4901532;29;20290;-66
2023/09/18 09:23:00;;;;;;;3.27;1.90;;;;;;;21.10;72.00;100204.72;4901212;29;20193;-66
2023/09/18 09:25:31;;;;;;;6.60;2.57;;;;;;;21.25;70.09;100207.06;4901403;29;20257;-66
2023/09/18 09:27:59;;;;;;;8.10;1.67;;;;;;;21.29;70.25;100209.06;4901337;29;20267;-66
2023/09/18 09:30:27;;;;;;;1.95;1.85;;;;;;;21.36;69.80;100219.81;4901330;29;20213;-67
2023/09/18 09:32:55;;;;;;;9.20;1.73;;;;;;;21.32;70.17;100221.34;4901478;29;20189;-67
2023/09/18 09:35:23;;;;;;;2.47;2.10;;;;;;;21.32;70.45;100214.03;4901474;29;20188;-67
2023/09/18 09:37:53;;;;;;;3.10;1.70;;;;;;;21.32;69.94;100207.75;4901153;29;20196;-66
2023/09/18 09:40:20;;;;;;;1.37;1.37;;;;;;;21.27;69.59;100222.06;4901386;29;20208;-66
2023/09/18 09:42:47;;;;;;;3.57;1.60;;;;;;;21.38;69.09;100215.81;4901002;29;20703;-70
2023/09/18 09:45:17;;;;;;;4.93;1.63;;;;;;;21.30;69.85;100218.06;4901368;29;20276;-70
2023/09/18 09:47:44;;;;;;;1.67;1.67;;;;;;;21.27;69.29;100215.78;4901365;29;20180;-66
2023/09/18 09:50:15;;;;;;;1.30;1.30;;;;;;;21.22;69.67;100230.06;4900939;29;20621;-68
2023/09/18 09:52:44;;;;;;;1.77;1.77;;;;;;;21.14;69.57;100229.59;4901221;29;20309;-67
2023/09/18 09:55:38;;;;;;;2.20;2.00;;;;;;;21.12;70.01;100232.56;4901475;29;20173;-67
2023/09/18 09:58:07;;;;;;;3.05;2.45;;;;;;;21.21;69.30;100233.88;4900842;29;20180;-68
2023/09/18 10:00:49;;;;;;;2.10;1.93;;;;;;;21.18;70.09;100231.59;4900885;29;20716;-68
2023/09/18 10:03:19;;;;;;;8.27;1.67;;;;;;;21.26;68.16;100231.25;4901095;29;20176;-67
2023/09/18 10:05:48;;;;;;;1.70;1.60;;;;;;;21.36;68.64;100220.66;4900655;29;20192;-67
2023/09/18 10:08:16;;;;;;;3.40;1.60;;;;;;;21.38;68.36;100228.59;4900572;29;20599;-72
2023/09/18 10:10:50;;;;;;;1.67;1.60;;;;;;;21.47;68.99;100232.63;4900381;29;20276;-71
2023/09/18 10:13:31;;;;;;;2.67;1.63;;;;;;;21.43;67.88;100226.81;4900791;29;20204;-72
2023/09/18 10:16:04;;;;;;;4.83;1.40;;;;;;;21.51;67.87;100225.66;4900771;29;20550;-71
2023/09/18 10:18:52;;;;;;;1.40;1.40;;;;;;;21.59;68.72;100232.63;4900766;29;20185;-72
2023/09/18 10:21:31;;;;;;;3.05;1.55;;;;;;;21.76;67.37;100234.41;4899587;29;20244;-72
2023/09/18 10:24:12;;;;;;;5.97;1.70;;;;;;;21.77;66.78;100225.16;4900623;29;20184;-71
2023/09/18 10:26:50;;;;;;;2.80;1.88;;;;;;;21.82;67.32;100230.75;4900810;29;20193;-72
2023/09/18 10:29:19;;;;;;;9.73;2.38;;;;;;;21.92;68.13;100219.28;4900575;29;20398;-71
2023/09/18 10:31:48;;;;;;;5.43;1.95;;;;;;;22.02;66.66;100215.97;4900598;29;20303;-71
2023/09/18 10:34:17;;;;;;;2.47;2.38;;;;;;;22.11;65.14;100204.47;4900476;29;20241;-71
2023/09/18 10:36:48;;;;;;;1.40;1.30;;;;;;;22.23;65.37;100210.75;4900127;29;20196;-71
2023/09/18 10:39:23;;;;;;;4.78;1.92;;;;;;;22.30;64.96;100218.75;4900381;29;20668;-71
2023/09/18 10:41:56;;;;;;;6.55;2.85;;;;;;;22.43;65.23;100213.03;4899893;29;20215;-71
2023/09/18 10:44:23;;;;;;;3.03;1.30;;;;;;;22.57;65.26;100219.88;4900333;29;20176;-71
2023/09/18 10:46:52;;;;;;;4.75;2.65;;;;;;;22.71;64.58;100206.81;4899962;29;20200;-71
2023/09/18 10:49:19;;;;;;;4.18;2.25;;;;;;;22.78;64.45;100212.94;4900481;29;20189;-70
2023/09/18 10:51:47;;;;;;;24.60;2.08;;;;;;;22.71;63.86;100209.53;4899718;29;20308;-69
2023/09/18 10:54:21;;;;;;;5.10;1.90;;;;;;;22.74;64.99;100217.25;4899838;29;20563;-70
2023/09/18 10:56:47;;;;;;;3.67;3.45;;;;;;;22.73;63.38;100216.41;4900024;29;20181;-70
2023/09/18 10:59:15;;;;;;;6.90;2.13;;;;;;;22.72;64.78;100212.03;4900027;29;20185;-69
2023/09/18 11:01:43;;;;;;;1.65;1.65;;;;;;;22.82;65.77;100214.13;4900103;29;20216;-69
2023/09/18 11:04:10;;;;;;;3.70;2.20;;;;;;;22.90;63.34;100216.44;4899632;29;20195;-69
2023/09/18 11:06:55;;;;;;;5.72;2.90;;;;;;;22.80;62.57;100202.63;4900066;29;20200;-69
2023/09/18 11:09:31;;;;;;;2.15;1.98;;;;;;;22.90;62.70;100212.88;4899564;29;20193;-69
2023/09/18 11:12:02;;;;;;;2.28;2.28;;;;;;;22.88;61.50;100224.03;4899719;29;20200;-70
2023/09/18 11:14:57;;;;;;;2.92;2.17;;;;;;;22.66;63.65;100209.41;4899978;29;20223;-70
2023/09/18 11:17:39;;;;;;;2.30;2.13;;;;;;;22.65;64.52;100205.03;4899705;29;20181;-70
2023/09/18 11:20:16;;;;;;;3.65;2.17;;;;;;;22.64;63.42;100206.94;4899309;29;20236;-70
2023/09/18 11:23:12;;;;;;;4.70;2.08;;;;;;;22.83;61.64;100210.28;4899516;29;20188;-69
2023/09/18 11:25:41;;;;;;;2.75;2.17;;;;;;;22.87;60.30;100206.03;4897247;29;20231;-69
2023/09/18 11:28:28;;;;;;;9.05;2.10;;;;;;;22.90;61.23;100212.88;4899188;29;20196;-69
2023/09/18 11:31:00;;;;;;;3.35;2.50;;;;;;;23.04;61.64;100211.53;4899058;29;20219;-69